createdAt,value
2018-07-30T00:01:08.032Z,6.07
2018-07-30T00:03:36.851Z,7.20
2018-07-30T00:06:05.047Z,6.40
2018-07-30T00:08:33.000Z,7.40
2018-07-30T00:11:01.299Z,7.07
2018-07-30T00:13:29.494Z,6.67
2018-07-30T00:15:57.708Z,6.73
2018-07-30T00:18:25.899Z,7.37
2018-07-30T00:20:54.087Z,6.73
2018-07-30T00:23:22.271Z,7.63
2018-07-30T00:25:50.514Z,7.07
2018-07-30T00:28:18.715Z,7.60
2018-07-30T00:30:46.903Z,7.43
2018-07-30T00:33:15.073Z,6.67
2018-07-30T00:35:43.259Z,7.17
2018-07-30T00:38:11.475Z,7.20
2018-07-30T00:40:39.419Z,7.37
2018-07-30T00:43:07.608Z,6.87
2018-07-30T00:45:35.804Z,6.50
2018-07-30T00:48:03.988Z,6.70
2018-07-30T00:50:32.218Z,7.10
2018-07-30T00:53:00.392Z,7.40
2018-07-30T00:55:28.595Z,7.53
2018-07-30T00:57:56.777Z,6.97
2018-07-30T01:00:24.980Z,8.23
2018-07-30T01:02:53.167Z,7.30
2018-07-30T01:05:21.367Z,7.90
2018-07-30T01:07:49.551Z,7.40
2018-07-30T01:10:17.760Z,9.17
2018-07-30T01:12:45.975Z,7.73
2018-07-30T01:15:14.184Z,7.57
2018-07-30T01:17:42.371Z,8.73
2018-07-30T01:20:10.555Z,8.70
2018-07-30T01:22:38.866Z,8.13
2018-07-30T01:25:07.075Z,7.90
2018-07-30T01:27:35.316Z,8.13
2018-07-30T01:30:03.563Z,8.90
2018-07-30T01:32:31.759Z,8.20
2018-07-30T01:34:59.983Z,7.60
2018-07-30T01:37:28.174Z,7.70
2018-07-30T01:39:56.352Z,8.80
2018-07-30T01:42:24.545Z,8.27
2018-07-30T01:44:53.619Z,8.10
2018-07-30T01:47:21.791Z,7.57
2018-07-30T01:49:49.996Z,7.73
2018-07-30T01:52:18.177Z,8.20
2018-07-30T01:54:46.366Z,8.73
2018-07-30T01:57:14.551Z,8.80
2018-07-30T01:59:42.787Z,8.83
2018-07-30T02:02:10.976Z,8.80
2018-07-30T02:04:39.160Z,9.07
2018-07-30T02:07:07.403Z,8.90
2018-07-30T02:09:35.618Z,8.50
2018-07-30T02:12:03.597Z,9.40
2018-07-30T02:14:31.511Z,9.37
2018-07-30T02:16:59.715Z,8.13
2018-07-30T02:19:27.884Z,9.37
2018-07-30T02:21:56.180Z,9.80
2018-07-30T02:24:24.347Z,9.90
2018-07-30T02:26:52.579Z,9.47
2018-07-30T02:29:20.767Z,9.40
2018-07-30T02:31:48.963Z,8.40
2018-07-30T02:34:17.155Z,8.80
2018-07-30T02:36:45.343Z,8.57
2018-07-30T02:39:14.307Z,8.90
2018-07-30T02:41:42.923Z,8.70
2018-07-30T02:44:11.148Z,9.57
2018-07-30T02:46:39.708Z,8.60
2018-07-30T02:49:08.411Z,8.50
2018-07-30T02:51:36.616Z,8.73
2018-07-30T02:54:04.808Z,8.67
2018-07-30T02:56:33.011Z,9.07
2018-07-30T02:59:01.212Z,9.40
2018-07-30T03:01:29.512Z,10.03
2018-07-30T03:03:57.699Z,9.43
2018-07-30T03:06:25.924Z,9.50
2018-07-30T03:08:54.106Z,8.87
2018-07-30T03:11:22.189Z,9.53
2018-07-30T03:13:50.503Z,10.40
2018-07-30T03:16:18.692Z,9.57
2018-07-30T03:18:46.893Z,10.90
2018-07-30T03:21:15.092Z,8.87
2018-07-30T03:23:43.287Z,9.63
2018-07-30T03:26:11.545Z,8.73
2018-07-30T03:28:39.775Z,9.73
2018-07-30T03:31:07.959Z,9.70
2018-07-30T03:33:36.409Z,10.57
2018-07-30T03:36:04.867Z,10.20
2018-07-30T03:38:33.059Z,9.20
2018-07-30T03:41:01.291Z,10.17
2018-07-30T03:43:29.503Z,9.20
2018-07-30T03:45:57.680Z,9.13
2018-07-30T03:48:25.999Z,10.33
2018-07-30T03:50:54.292Z,9.67
2018-07-30T03:53:22.467Z,9.43
2018-07-30T03:55:50.667Z,8.90
2018-07-30T03:58:18.851Z,8.87
2018-07-30T04:00:47.042Z,9.77
2018-07-30T04:03:15.223Z,9.80
2018-07-30T04:05:43.473Z,10.03
2018-07-30T04:08:11.625Z,10.10
2018-07-30T04:10:40.551Z,10.40
2018-07-30T04:13:08.759Z,10.17
2018-07-30T04:15:36.975Z,9.17
2018-07-30T04:18:05.251Z,10.27
2018-07-30T04:20:33.455Z,9.10
2018-07-30T04:23:01.720Z,9.70
2018-07-30T04:25:29.907Z,10.13
2018-07-30T04:27:58.107Z,9.80
2018-07-30T04:30:26.336Z,9.17
2018-07-30T04:32:54.520Z,9.53
2018-07-30T04:35:22.723Z,9.77
2018-07-30T04:37:50.911Z,9.93
2018-07-30T04:40:19.695Z,9.53
2018-07-30T04:42:47.925Z,9.63
2018-07-30T04:45:16.131Z,9.20
2018-07-30T04:47:44.348Z,10.13
2018-07-30T04:50:12.585Z,9.60
2018-07-30T04:52:40.743Z,9.97
2018-07-30T04:55:09.043Z,10.13
2018-07-30T04:57:37.259Z,10.13
2018-07-30T05:00:05.991Z,9.87
2018-07-30T05:02:34.217Z,9.63
2018-07-30T05:05:02.438Z,9.67
2018-07-30T05:07:30.619Z,9.90
2018-07-30T05:09:58.807Z,9.50
2018-07-30T05:12:27.004Z,9.53
2018-07-30T05:14:55.240Z,9.40
2018-07-30T05:17:23.515Z,9.77
2018-07-30T05:19:51.723Z,10.23
2018-07-30T05:22:19.919Z,9.57
2018-07-30T05:24:48.123Z,8.93
2018-07-30T05:27:16.776Z,9.87
2018-07-30T05:29:45.120Z,9.10
2018-07-30T05:32:13.404Z,8.83
2018-07-30T05:34:41.595Z,8.70
2018-07-30T05:37:09.856Z,9.20
2018-07-30T05:39:38.038Z,7.97
2018-07-30T05:42:06.368Z,8.30
2018-07-30T05:44:34.547Z,8.70
2018-07-30T05:47:02.763Z,8.00
2018-07-30T05:49:30.726Z,8.77
2018-07-30T05:51:58.921Z,8.40
2018-07-30T05:54:27.143Z,8.17
2018-07-30T05:56:55.327Z,8.27
2018-07-30T05:59:23.535Z,8.20
2018-07-30T06:01:51.741Z,8.30
2018-07-30T06:04:19.936Z,8.20
2018-07-30T06:06:48.114Z,8.70
2018-07-30T06:09:16.375Z,8.57
2018-07-30T06:11:44.561Z,7.70
2018-07-30T06:14:12.757Z,8.00
2018-07-30T06:16:40.931Z,8.70
2018-07-30T06:19:09.132Z,8.40
2018-07-30T06:21:37.340Z,6.97
2018-07-30T06:24:05.744Z,8.43
2018-07-30T06:26:34.020Z,7.80
2018-07-30T06:29:02.205Z,6.90
2018-07-30T06:31:30.428Z,7.60
2018-07-30T06:33:58.623Z,7.20
2018-07-30T06:36:26.803Z,6.97
2018-07-30T06:38:55.000Z,6.90
2018-07-30T06:41:23.206Z,6.70
2018-07-30T06:43:51.397Z,7.13
2018-07-30T06:46:19.591Z,7.67
2018-07-30T06:48:47.795Z,6.57
2018-07-30T06:51:15.979Z,6.03
2018-07-30T06:53:44.163Z,6.70
2018-07-30T06:56:12.396Z,6.67
2018-07-30T06:58:41.591Z,6.57
2018-07-30T07:01:09.614Z,6.43
2018-07-30T07:03:37.804Z,6.40
2018-07-30T07:06:05.991Z,6.13
2018-07-30T07:08:34.204Z,6.37
2018-07-30T07:11:02.399Z,5.70
2018-07-30T07:13:30.577Z,6.03
2018-07-30T07:15:58.775Z,6.70
2018-07-30T07:18:26.967Z,6.40
2018-07-30T07:20:55.192Z,5.87
2018-07-30T07:23:23.388Z,6.20
2018-07-30T07:25:51.600Z,5.50
2018-07-30T07:28:19.783Z,6.20
2018-07-30T07:30:47.979Z,5.43
2018-07-30T07:33:16.179Z,6.20
2018-07-30T07:35:44.380Z,5.53
2018-07-30T07:38:12.631Z,5.87
2018-07-30T07:40:40.791Z,5.47
2018-07-30T07:43:09.015Z,5.30
2018-07-30T07:45:37.271Z,5.30
2018-07-30T07:48:05.491Z,5.53
2018-07-30T07:50:33.781Z,5.60
2018-07-30T07:53:01.920Z,5.37
2018-07-30T07:55:30.127Z,5.47
2018-07-30T07:57:58.327Z,5.20
2018-07-30T08:00:26.516Z,5.20
2018-07-30T08:02:54.836Z,5.20
2018-07-30T08:05:23.057Z,5.27
2018-07-30T08:07:51.259Z,4.60
2018-07-30T08:10:19.451Z,4.60
2018-07-30T08:12:47.720Z,4.30
2018-07-30T08:15:16.144Z,4.37
2018-07-30T08:17:44.349Z,4.37
2018-07-30T08:20:12.588Z,4.53
2018-07-30T08:22:40.784Z,4.90
2018-07-30T08:25:11.280Z,4.30
2018-07-30T08:27:39.447Z,4.77
2018-07-30T08:30:08.228Z,4.90
2018-07-30T08:32:36.872Z,5.10
2018-07-30T08:35:05.547Z,4.40
2018-07-30T08:37:34.106Z,4.80
2018-07-30T08:40:02.440Z,4.60
2018-07-30T08:42:30.656Z,4.07
2018-07-30T08:44:58.842Z,4.30
2018-07-30T08:47:27.060Z,4.70
2018-07-30T08:49:55.238Z,4.53
2018-07-30T08:52:23.447Z,4.60
2018-07-30T08:54:51.688Z,4.50
2018-07-30T08:57:19.996Z,4.97
2018-07-30T08:59:48.182Z,4.50
2018-07-30T09:02:16.374Z,3.83
2018-07-30T09:04:44.552Z,4.30
2018-07-30T09:07:12.821Z,4.33
2018-07-30T09:09:40.983Z,4.33
2018-07-30T09:12:09.151Z,4.43
2018-07-30T09:14:37.351Z,4.10
2018-07-30T09:17:06.471Z,4.30
2018-07-30T09:19:35.085Z,4.10
2018-07-30T09:22:03.259Z,4.40
2018-07-30T09:24:31.214Z,4.40
2018-07-30T09:26:59.472Z,3.80
2018-07-30T09:29:27.744Z,4.40
2018-07-30T09:31:55.911Z,4.30
2018-07-30T09:34:23.888Z,4.57
2018-07-30T09:36:52.082Z,4.00
2018-07-30T09:39:20.978Z,4.30
2018-07-30T09:41:49.156Z,4.07
2018-07-30T09:44:17.347Z,4.13
2018-07-30T09:46:45.519Z,4.00
2018-07-30T09:49:13.703Z,4.07
2018-07-30T09:51:41.967Z,4.47
2018-07-30T09:54:10.219Z,4.33
2018-07-30T09:56:38.395Z,4.17
2018-07-30T09:59:07.091Z,4.20
2018-07-30T10:01:35.267Z,4.03
2018-07-30T10:04:03.471Z,4.27
2018-07-30T10:06:31.660Z,4.03
2018-07-30T10:08:59.875Z,3.77
2018-07-30T10:11:28.115Z,4.00
2018-07-30T10:13:56.054Z,3.83
2018-07-30T10:16:24.243Z,3.60
2018-07-30T10:18:52.483Z,4.20
2018-07-30T10:21:20.407Z,3.90
2018-07-30T10:23:48.632Z,3.90
2018-07-30T10:26:16.829Z,3.77
2018-07-30T10:28:45.052Z,3.63
2018-07-30T10:31:13.911Z,3.80
2018-07-30T10:33:41.847Z,3.60
2018-07-30T10:36:10.051Z,3.17
2018-07-30T10:38:38.243Z,3.77
2018-07-30T10:41:06.567Z,3.72
2018-07-30T10:43:34.756Z,3.90
2018-07-30T10:46:03.009Z,4.22
2018-07-30T10:48:31.250Z,4.20
2018-07-30T10:50:59.531Z,3.95
2018-07-30T10:53:27.708Z,3.67
2018-07-30T10:55:55.925Z,3.83
2018-07-30T10:58:24.119Z,3.67
2018-07-30T11:00:52.387Z,3.98
2018-07-30T11:03:20.647Z,3.50
2018-07-30T11:05:48.887Z,3.62
2018-07-30T11:08:17.119Z,3.50
2018-07-30T11:10:45.605Z,3.75
2018-07-30T11:13:13.892Z,3.37
2018-07-30T11:15:42.090Z,3.90
2018-07-30T11:18:10.309Z,3.50
2018-07-30T11:20:38.491Z,3.55
2018-07-30T11:23:06.888Z,3.90
2018-07-30T11:25:35.108Z,3.90
2018-07-30T11:28:03.352Z,3.67
2018-07-30T11:30:31.510Z,3.70
2018-07-30T11:32:59.715Z,3.22
2018-07-30T11:35:27.916Z,3.58
2018-07-30T11:37:56.153Z,3.90
2018-07-30T11:40:24.353Z,3.67
2018-07-30T11:42:52.676Z,3.27
2018-07-30T11:45:20.803Z,3.72
2018-07-30T11:47:49.015Z,4.20
2018-07-30T11:50:17.195Z,4.00
2018-07-30T11:52:45.396Z,3.58
2018-07-30T11:55:13.607Z,3.95
2018-07-30T11:57:41.800Z,3.40
2018-07-30T12:00:10.148Z,3.87
2018-07-30T12:02:38.319Z,3.75
2018-07-30T12:05:06.524Z,3.80
2018-07-30T12:07:34.718Z,4.10
2018-07-30T12:10:02.909Z,3.70
2018-07-30T12:12:31.210Z,3.90
2018-07-30T12:14:59.372Z,4.05
2018-07-30T12:17:27.632Z,3.98
2018-07-30T12:19:55.816Z,3.92
2018-07-30T12:22:24.034Z,3.75
2018-07-30T12:24:52.060Z,3.80
2018-07-30T12:27:20.292Z,4.40
2018-07-30T12:29:48.471Z,3.90
2018-07-30T12:32:16.652Z,4.12
2018-07-30T12:34:44.843Z,4.62
2018-07-30T12:37:13.076Z,4.55
2018-07-30T12:39:41.265Z,4.22
2018-07-30T12:42:09.452Z,3.90
2018-07-30T12:44:37.652Z,4.30
2018-07-30T12:47:05.876Z,4.10
2018-07-30T12:49:34.069Z,3.95
2018-07-30T12:52:02.271Z,4.00
2018-07-30T12:54:30.239Z,3.77
2018-07-30T12:56:58.527Z,4.03
2018-07-30T12:59:27.223Z,4.17
2018-07-30T13:01:55.441Z,4.30
2018-07-30T13:04:23.627Z,4.08
2018-07-30T13:06:51.815Z,4.12
2018-07-30T13:09:19.812Z,4.17
2018-07-30T13:11:48.013Z,4.35
2018-07-30T13:14:16.218Z,4.05
2018-07-30T13:16:44.399Z,4.08
2018-07-30T13:19:12.636Z,4.08
2018-07-30T13:21:40.820Z,4.20
2018-07-30T13:24:09.000Z,4.37
2018-07-30T13:26:37.315Z,3.60
2018-07-30T13:29:05.402Z,4.08
2018-07-30T13:31:33.608Z,3.98
2018-07-30T13:34:01.798Z,4.47
2018-07-30T13:36:30.011Z,4.28
2018-07-30T13:38:58.192Z,4.20
2018-07-30T13:41:26.403Z,4.33
2018-07-30T13:43:54.631Z,4.05
2018-07-30T13:46:22.894Z,4.00
2018-07-30T13:48:51.223Z,3.77
2018-07-30T13:51:19.427Z,3.70
2018-07-30T13:53:47.631Z,4.00
2018-07-30T13:56:15.835Z,3.90
2018-07-30T13:58:44.043Z,4.08
2018-07-30T14:01:12.266Z,4.15
2018-07-30T14:03:40.455Z,4.45
2018-07-30T14:06:08.683Z,3.77
2018-07-30T14:08:36.851Z,4.30
2018-07-30T14:11:05.055Z,4.35
2018-07-30T14:13:33.283Z,3.83
2018-07-30T14:16:01.514Z,3.72
2018-07-30T14:18:29.696Z,3.62
2018-07-30T14:20:57.911Z,4.17
2018-07-30T14:23:26.368Z,3.70
2018-07-30T14:25:54.582Z,3.42
2018-07-30T14:28:22.822Z,3.47
2018-07-30T14:30:50.962Z,4.08
2018-07-30T14:33:19.189Z,3.80
2018-07-30T14:35:47.411Z,3.45
2018-07-30T14:38:15.629Z,4.05
2018-07-30T14:40:43.866Z,3.65
2018-07-30T14:43:12.095Z,3.98
2018-07-30T14:45:40.285Z,3.72
2018-07-30T14:48:08.503Z,3.75
2018-07-30T14:50:37.944Z,3.80
2018-07-30T14:53:06.128Z,3.85
2018-07-30T14:55:34.325Z,3.17
2018-07-30T14:58:02.504Z,3.40
2018-07-30T15:00:30.694Z,3.35
2018-07-30T15:02:58.879Z,3.70
2018-07-30T15:05:27.111Z,3.50
2018-07-30T15:07:55.289Z,3.75
2018-07-30T15:10:23.471Z,3.80
2018-07-30T15:12:51.423Z,3.67
2018-07-30T15:15:19.619Z,3.67
2018-07-30T15:17:47.852Z,3.70
2018-07-30T15:20:16.043Z,2.85
2018-07-30T15:22:44.355Z,3.65
2018-07-30T15:25:12.576Z,3.47
2018-07-30T15:27:40.769Z,3.70
2018-07-30T15:30:09.016Z,5.60
2018-07-30T15:32:37.304Z,15.23
2018-07-30T15:35:05.576Z,3.45
2018-07-30T15:37:33.776Z,4.10
2018-07-30T15:40:01.992Z,4.12
2018-07-30T15:42:30.179Z,3.98
2018-07-30T15:44:58.384Z,4.10
2018-07-30T15:47:26.555Z,4.17
2018-07-30T15:49:54.775Z,3.72
2018-07-30T15:52:22.967Z,3.80
2018-07-30T15:54:51.259Z,3.98
2018-07-30T15:57:19.095Z,3.72
2018-07-30T15:59:47.307Z,4.10
2018-07-30T16:02:15.495Z,3.70
2018-07-30T16:04:43.593Z,4.20
2018-07-30T16:07:11.993Z,3.55
2018-07-30T16:09:40.187Z,4.30
2018-07-30T16:12:08.449Z,3.45
2018-07-30T16:14:36.757Z,3.90
2018-07-30T16:17:04.979Z,3.62
2018-07-30T16:19:33.171Z,3.75
2018-07-30T16:22:01.396Z,3.77
2018-07-30T16:24:29.584Z,3.25
2018-07-30T16:26:57.763Z,3.60
2018-07-30T16:29:25.998Z,3.30
2018-07-30T16:31:54.203Z,3.80
2018-07-30T16:34:22.404Z,3.92
2018-07-30T16:36:50.599Z,3.60
2018-07-30T16:39:18.799Z,3.80
2018-07-30T16:41:46.751Z,3.60
2018-07-30T16:44:14.956Z,3.42
2018-07-30T16:46:43.350Z,3.47
2018-07-30T16:49:11.499Z,3.83
2018-07-30T16:51:39.712Z,3.35
2018-07-30T16:54:07.904Z,3.45
2018-07-30T16:56:36.093Z,3.80
2018-07-30T16:59:04.316Z,3.85
2018-07-30T17:01:33.083Z,3.90
2018-07-30T17:04:01.013Z,3.55
2018-07-30T17:06:29.221Z,3.40
2018-07-30T17:08:57.416Z,3.50
2018-07-30T17:11:25.672Z,3.40
2018-07-30T17:13:53.875Z,3.70
2018-07-30T17:16:22.077Z,3.65
2018-07-30T17:18:50.247Z,3.65
2018-07-30T17:21:18.443Z,3.27
2018-07-30T17:23:46.644Z,3.45
2018-07-30T17:26:14.839Z,3.72
2018-07-30T17:28:43.012Z,3.87
2018-07-30T17:31:11.267Z,3.65
2018-07-30T17:33:39.451Z,3.33
2018-07-30T17:36:07.676Z,3.20
2018-07-30T17:38:35.879Z,3.10
2018-07-30T17:41:04.067Z,3.37
2018-07-30T17:43:32.027Z,3.00
2018-07-30T17:46:01.220Z,3.67
2018-07-30T17:48:29.408Z,3.50
2018-07-30T17:50:57.603Z,3.50
2018-07-30T17:53:26.695Z,3.40
2018-07-30T17:55:55.387Z,3.27
2018-07-30T17:58:23.586Z,3.72
2018-07-30T18:00:51.861Z,3.15
2018-07-30T18:03:20.107Z,3.83
2018-07-30T18:05:48.035Z,3.45
2018-07-30T18:08:16.251Z,3.70
2018-07-30T18:10:44.585Z,3.27
2018-07-30T18:13:12.767Z,3.22
2018-07-30T18:15:40.967Z,3.40
2018-07-30T18:18:09.147Z,3.30
2018-07-30T18:20:37.335Z,3.20
2018-07-30T18:23:05.551Z,3.45
2018-07-30T18:25:33.723Z,3.15
2018-07-30T18:28:01.959Z,3.15
2018-07-30T18:30:30.124Z,3.42
2018-07-30T18:32:58.300Z,3.60
2018-07-30T18:35:26.510Z,3.42
2018-07-30T18:37:54.687Z,3.50
2018-07-30T18:40:22.884Z,3.20
2018-07-30T18:42:51.060Z,3.33
2018-07-30T18:45:19.280Z,2.93
2018-07-30T18:47:47.474Z,3.60
2018-07-30T18:50:15.674Z,2.90
2018-07-30T18:52:43.876Z,3.00
2018-07-30T18:55:12.126Z,3.10
2018-07-30T18:57:40.580Z,3.40
2018-07-30T19:00:08.759Z,3.27
2018-07-30T19:02:36.947Z,3.60
2018-07-30T19:05:05.641Z,3.23
2018-07-30T19:07:33.831Z,3.10
2018-07-30T19:10:03.178Z,3.23
2018-07-30T19:12:31.501Z,3.03
2018-07-30T19:14:59.656Z,3.60
2018-07-30T19:17:27.856Z,3.20
2018-07-30T19:19:55.859Z,3.77
2018-07-30T19:22:24.042Z,5.83
2018-07-30T19:24:52.219Z,9.63
2018-07-30T19:27:20.428Z,5.27
2018-07-30T19:29:49.012Z,4.50
2018-07-30T19:32:17.289Z,3.83
2018-07-30T19:34:45.503Z,4.33
2018-07-30T19:37:14.719Z,4.23
2018-07-30T19:39:42.926Z,4.73
2018-07-30T19:42:11.110Z,4.43
2018-07-30T19:44:39.376Z,4.43
2018-07-30T19:47:07.535Z,4.63
2018-07-30T19:49:35.843Z,4.20
2018-07-30T19:52:04.017Z,4.63
2018-07-30T19:54:32.264Z,3.97
2018-07-30T19:57:00.488Z,4.47
2018-07-30T19:59:28.716Z,4.80
2018-07-30T20:01:56.927Z,4.37
2018-07-30T20:04:25.145Z,4.87
2018-07-30T20:06:53.574Z,4.40
2018-07-30T20:09:21.702Z,4.63
2018-07-30T20:11:50.003Z,5.07
2018-07-30T20:14:18.204Z,4.57
2018-07-30T20:16:46.395Z,4.07
2018-07-30T20:19:14.608Z,4.20
2018-07-30T20:21:42.806Z,3.93
2018-07-30T20:24:11.087Z,4.17
2018-07-30T20:26:39.296Z,4.53
2018-07-30T20:29:07.475Z,4.20
2018-07-30T20:31:35.681Z,4.30
2018-07-30T20:34:04.462Z,4.23
2018-07-30T20:36:32.667Z,4.17
2018-07-30T20:39:00.875Z,4.83
2018-07-30T20:41:29.080Z,4.20
2018-07-30T20:43:57.438Z,4.33
2018-07-30T20:46:25.623Z,4.83
2018-07-30T20:48:53.827Z,3.97
2018-07-30T20:51:22.071Z,4.00
2018-07-30T20:53:50.244Z,4.17
2018-07-30T20:56:18.452Z,3.90
2018-07-30T20:58:46.644Z,4.40
2018-07-30T21:01:14.859Z,4.03
2018-07-30T21:03:43.059Z,4.33
2018-07-30T21:06:11.252Z,4.90
2018-07-30T21:08:39.483Z,4.40
2018-07-30T21:11:07.668Z,4.23
2018-07-30T21:13:35.883Z,4.27
2018-07-30T21:16:03.885Z,4.80
2018-07-30T21:18:32.087Z,4.10
2018-07-30T21:21:00.435Z,5.00
2018-07-30T21:23:28.670Z,4.43
2018-07-30T21:25:56.909Z,4.13
2018-07-30T21:28:25.093Z,4.10
2018-07-30T21:30:53.287Z,4.30
2018-07-30T21:33:21.259Z,4.37
2018-07-30T21:35:49.443Z,4.80
2018-07-30T21:38:17.622Z,4.60
2018-07-30T21:40:45.847Z,4.40
2018-07-30T21:43:14.207Z,4.37
2018-07-30T21:45:42.431Z,4.43
2018-07-30T21:48:10.616Z,4.43
2018-07-30T21:50:38.808Z,4.30
2018-07-30T21:53:07.659Z,4.90
2018-07-30T21:55:35.895Z,4.83
2018-07-30T21:58:04.107Z,4.40
2018-07-30T22:00:32.320Z,5.10
2018-07-30T22:03:00.662Z,4.90
2018-07-30T22:05:28.883Z,4.57
2018-07-30T22:07:57.075Z,5.00
2018-07-30T22:10:25.679Z,4.87
2018-07-30T22:12:54.695Z,4.43
2018-07-30T22:15:23.489Z,4.97
2018-07-30T22:17:51.735Z,4.93
2018-07-30T22:20:19.934Z,4.67
2018-07-30T22:22:48.108Z,4.63
2018-07-30T22:25:16.280Z,5.33
2018-07-30T22:27:44.471Z,5.20
2018-07-30T22:30:13.427Z,5.10
2018-07-30T22:32:41.684Z,5.10
2018-07-30T22:35:10.124Z,5.03
2018-07-30T22:37:38.319Z,4.70
2018-07-30T22:40:07.418Z,4.70
2018-07-30T22:42:35.635Z,5.17
2018-07-30T22:45:03.851Z,5.17
2018-07-30T22:47:32.047Z,4.97
2018-07-30T22:50:00.267Z,5.10
2018-07-30T22:52:28.456Z,5.20
2018-07-30T22:54:56.648Z,4.80
2018-07-30T22:57:24.857Z,4.57
2018-07-30T22:59:53.051Z,4.63
2018-07-30T23:02:21.234Z,5.03
2018-07-30T23:04:49.431Z,5.13
2018-07-30T23:07:17.729Z,4.93
2018-07-30T23:09:45.935Z,5.60
2018-07-30T23:12:14.162Z,5.40
2018-07-30T23:14:42.335Z,5.07
2018-07-30T23:17:10.547Z,5.10
2018-07-30T23:19:38.727Z,5.13
2018-07-30T23:22:06.921Z,5.20
2018-07-30T23:24:35.211Z,5.00
2018-07-30T23:27:03.411Z,5.33
2018-07-30T23:29:31.599Z,5.47
2018-07-30T23:31:59.936Z,5.53
2018-07-30T23:34:28.727Z,5.63
2018-07-30T23:36:56.970Z,5.40
2018-07-30T23:39:25.119Z,5.47
2018-07-30T23:41:53.299Z,6.27
2018-07-30T23:44:21.495Z,5.70
2018-07-30T23:46:49.662Z,5.37
2018-07-30T23:49:17.871Z,5.73
2018-07-30T23:51:46.067Z,6.53
2018-07-30T23:54:14.267Z,5.77
2018-07-30T23:56:42.455Z,6.07
2018-07-30T23:59:10.636Z,5.80
